Latest Coastal Weather Observations for Laverton

IDV60701

Issued at 11:55 pm EST Friday 1 August 2014 (issued every 10 minutes, with the page automatically refreshed every 10 minutes)

About coastal observations | Map of coastal stations | Coastal observations for VIC | Marine services | Other Formats
Station Details ID: 087031 Name: LAVERTON RAAF Lat: -37.86 Lon: 144.76 Height: 20.1 m
Data from the previous 72 hours. | See also: Recent months at Laverton
Date/Time
EST
Temp

°C
Wind Pressure Rain
since 9am
mm
Weather Cloud Vis
km
Sea
Height
m
Swell
Dir
 
Speed
knots
Gust
knots
hPa Trend Height
m
Period
s
Dir
01/11:41pm 5.4 W 6 11 1022.7 - 7.8 - Partly cloudy 10 - - - -
01/11:30pm 5.6 WSW 10 16 1022.6 - 7.8 - Partly cloudy 8 - - - -
01/11:24pm 5.4 W 12 16 1022.7 - 7.8 - Partly cloudy 8 - - - -
01/11:00pm 4.1 WNW 8 10 1021.9 - 7.2 - Partly cloudy 10 - - - -
01/10:30pm 4.8 WNW 8 11 1021.5 - 7.2 - Partly cloudy 10 - - - -
01/10:00pm 4.8 WNW 12 15 1021.0 - 6.8 - Partly cloudy 10 - - - -
01/09:30pm 5.8 W 13 17 1020.3 - 6.8 - Partly cloudy 10 - - - -
01/09:25pm 5.9 W 14 19 1020.2 - 6.8 - Partly cloudy 10 - - - -
01/09:08pm 5.7 W 17 26 1019.8 - 6.8 - Partly cloudy 8 - - - -
01/09:00pm 6.0 W 15 21 1019.7 - 6.6 - Cloudy 10 - - - -
01/08:30pm 5.8 WNW 10 13 1019.4 - 6.6 - Partly cloudy 10 - - - -
01/08:13pm 5.6 W 9 14 1019.0 - 6.6 - Partly cloudy 10 - - - -
01/08:00pm 5.7 WSW 14 24 1018.9 - 6.6 - Partly cloudy 6 - - - -
01/07:53pm 5.8 WSW 11 24 1018.9 - 6.2 - Partly cloudy 8 - - - -
01/07:40pm 5.7 WSW 9 14 1018.3 - 6.0 - Partly cloudy 10 - - - -
01/07:30pm 5.8 WSW 13 17 1017.9 - 6.0 - Partly cloudy 8 - - - -
01/07:23pm 5.7 WSW 15 25 1017.9 - 5.6 - Partly cloudy 4 - - - -
01/07:12pm 6.1 W 16 23 1017.5 - 4.8 - Partly cloudy 8 - - - -
01/07:00pm 6.1 W 13 18 1016.9 - 4.4 - Partly cloudy 10 - - - -
01/06:54pm 6.2 W 12 17 1016.8 - 4.4 - Partly cloudy 10 - - - -
01/06:40pm 6.3 WSW 18 27 1016.4 - 4.4 - Partly cloudy 8 - - - -
01/06:30pm 6.5 WSW 18 27 1016.0 - 4.4 - Partly cloudy 10 - - - -
01/06:15pm 6.4 WSW 17 28 1015.8 - 4.2 - Partly cloudy 10 - - - -
01/06:00pm 6.3 WSW 15 21 1015.3 - 4.2 - Cloudy 10 - - - -
01/05:59pm 6.3 WSW 15 21 1015.2 - 4.2 - Partly cloudy 10 - - - -
01/05:43pm 6.4 WSW 15 27 1015.0 - 4.2 - Partly cloudy 5 - - - -
01/05:38pm 6.5 WSW 12 21 1014.8 - 3.6 - Partly cloudy 8 - - - -
01/05:30pm 6.6 WSW 14 21 1014.4 - 3.2 - Partly cloudy 10 - - - -
01/05:22pm 6.7 WSW 12 19 1014.0 - 3.0 - Partly cloudy 10 - - - -
01/05:04pm 6.9 SW 16 28 1013.4 - 3.0 - Partly cloudy 7 - - - -
01/05:03pm 7.1 SW 15 27 1013.5 - 3.0 - Partly cloudy 9 - - - -
01/05:00pm 7.2 SW 13 21 1013.5 - 2.6 - Partly cloudy 10 - - - -
01/04:42pm 7.1 SW 14 21 1012.5 - 2.6 - Partly cloudy 10 - - - -
01/04:30pm 6.5 SW 17 22 1012.4 - 2.6 - Partly cloudy 6 - - - -
01/04:25pm 6.8 SSW 18 25 1012.4 - 2.4 - Partly cloudy 8 - - - -
01/04:12pm 8.8 W 16 26 1011.4 - 1.8 - Partly cloudy 10 - - - -
01/04:00pm 8.9 W 16 24 1011.5 - 1.8 - Partly cloudy 10 - - - -
01/03:39pm 8.0 W 18 25 1010.8 - 1.8 - Partly cloudy 10 - - - -
01/03:30pm 8.0 W 15 24 1010.5 - 1.8 - Partly cloudy 10 - - - -
01/03:21pm 7.6 W 19 29 1010.3 - 1.8 - Partly cloudy 7 - - - -
01/03:01pm 9.8 W 15 25 1009.7 - 1.2 - Partly cloudy 10 - - - -
01/03:00pm 9.8 W 15 21 1009.8 - 1.2 - Cloudy 10 - - - -
01/02:30pm 9.2 W 18 26 1009.1 - 1.2 - Partly cloudy 10 - - - -
01/02:20pm 9.4 W 16 26 1008.6 - 1.2 - Partly cloudy 10 - - - -
01/02:00pm 8.6 W 17 23 1008.3 - 1.2 - Partly cloudy 10 - - - -
01/01:30pm 8.6 W 16 24 1007.8 - 1.2 - Partly cloudy 10 - - - -
01/01:19pm 8.3 W 15 25 1007.8 - 1.2 - Partly cloudy 10 - - - -
01/01:16pm 8.2 W 12 15 1007.8 - 1.2 - Partly cloudy 10 - - - -
01/01:00pm 7.2 W 12 19 1007.7 - 1.2 - Partly cloudy 6 - - - -
01/12:55pm 7.4 W 15 21 1007.8 - 0.8 - Partly cloudy 8 - - - -
01/12:30pm 7.7 WNW 16 22 1006.9 - 0.6 - Partly cloudy 10 - - - -
01/12:00pm 6.5 WNW 18 23 1006.3 - 0.6 - Partly cloudy 10 - - - -
01/11:54am 6.2 WNW 19 27 1006.2 - 0.6 - Partly cloudy 10 - - - -
01/11:52am 6.1 WNW 21 27 1006.1 - 0.6 - Partly cloudy 10 - - - -
01/11:30am 6.4 W 26 38 1006.2 - 0.2 - Partly cloudy 6 - - - -
01/11:26am 7.0 W 25 38 1006.1 - 0.0 - Partly cloudy 8 - - - -
01/11:21am 8.4 W 23 34 1005.8 - 0.0 - Partly cloudy 10 - - - -
01/11:00am 8.9 WNW 22 31 1005.2 - 0.0 - Partly cloudy 10 - - - -
01/10:31am 10.0 NW 23 33 1004.2 - 0.0 - Partly cloudy 10 - - - -
01/10:30am 10.0 NW 23 32 1004.2 - 0.0 - Partly cloudy 10 - - - -
01/10:09am 8.7 NW 20 31 1004.0 - 0.0 - - 10 - - - -
01/10:00am 8.4 NW 19 27 1004.3 - 0.0 - Partly cloudy 10 - - - -
01/09:50am 8.3 NW 19 29 1004.2 - 0.0 - - 10 - - - -
01/09:30am 8.1 NW 22 29 1003.1 - 0.0 - - 10 - - - -
01/09:00am 7.1 NW 22 29 1003.0 - 5.4 - - 10 - - - -
01/08:37am 6.9 NW 18 28 1003.0 - 5.4 - - 10 - - - -
01/08:30am 6.7 NW 18 24 1003.0 - 5.4 - Partly cloudy 10 - - - -
01/08:00am 6.0 NW 15 19 1003.0 - 5.4 - Partly cloudy 10 - - - -
01/07:30am 5.0 NW 11 16 1002.9 - 5.4 - - 10 - - - -
01/07:00am 5.3 NW 11 16 1002.2 - 5.4 - - 10 - - - -
01/06:30am 6.1 NNW 12 20 1000.6 - 5.4 - - 10 - - - -
01/06:00am 6.6 NNW 14 23 1000.8 - 5.4 - - 10 - - - -
01/05:42am 6.5 NW 19 29 1000.9 - 5.4 - - 10 - - - -
01/05:30am 6.4 NW 17 26 1000.8 - 5.4 - - 10 - - - -
01/05:00am 6.2 NW 19 25 1001.0 - 5.4 - - 10 - - - -
01/04:30am 6.3 NW 20 28 1001.1 - 5.4 - - 10 - - - -
01/04:00am 6.2 NW 14 22 1001.5 - 5.4 - - 10 - - - -
01/03:30am 6.3 NW 11 15 1002.0 - 5.4 - - 10 - - - -
01/03:00am 6.5 NNW 7 14 1002.4 - 5.4 - - 10 - - - -
01/02:30am 6.6 NW 16 24 1001.7 - 5.4 - - 10 - - - -
01/02:00am 6.8 NW 20 30 1001.0 - 5.4 - - 10 - - - -
01/01:30am 6.3 NW 20 27 1001.2 - 5.4 - - 10 - - - -
01/01:00am 6.1 NW 17 21 1001.3 - 5.4 - - 10 - - - -
01/12:30am 6.4 NW 16 21 1001.9 - 5.4 - - 10 - - - -
01/12:00am 6.3 NW 14 18 1001.9 - 5.4 - - 10 - - - -
 
Date/Time
EST
Temp

°C
Wind Pressure Rain
since 9am
mm
Weather Cloud Vis
km
Sea
Height
m
Swell
Dir
 
Speed
knots
Gust
knots
hPa Trend Height
m
Period
s
Dir
31/11:30pm 6.7 NW 15 19 1002.0 - 5.4 - - 10 - - - -
31/11:00pm 7.4 WNW 17 24 1002.1 - 5.4 - - 10 - - - -
31/10:30pm 7.1 NW 16 22 1001.8 - 5.4 - - 10 - - - -
31/10:00pm 7.1 NW 16 21 1001.6 - 5.4 - Partly cloudy 10 - - - -
31/09:30pm 7.5 NW 19 26 1001.1 - 5.4 - Cloudy 10 - - - -
31/09:00pm 7.9 WNW 19 25 1001.2 - 5.4 - Cloudy 10 - - - -
31/08:30pm 7.8 WNW 16 21 1001.1 - 5.4 - Partly cloudy 10 - - - -
31/08:00pm 7.7 WNW 15 20 1001.1 - 5.4 - Partly cloudy 10 - - - -
31/07:30pm 7.1 NW 12 15 1000.9 - 5.4 - Partly cloudy 10 - - - -
31/07:00pm 6.6 NNW 12 16 1000.3 - 5.4 - Partly cloudy 10 - - - -
31/06:30pm 6.5 NNW 11 13 1000.3 - 5.4 - Cloudy 10 - - - -
31/06:00pm 6.6 NW 14 18 1000.0 - 5.2 - Mostly cloudy 10 - - - -
31/05:39pm 6.5 WNW 16 23 999.9 - 5.2 - Partly cloudy 10 - - - -
31/05:30pm 6.6 WNW 17 25 1000.0 - 4.8 - Cloudy 9 - - - -
31/05:20pm 6.9 W 16 30 999.8 - 4.8 - Cloudy 8 - - - -
31/05:00pm 7.1 W 15 23 999.9 - 4.0 - Partly cloudy 9 - - - -
31/04:49pm 7.3 W 17 27 999.6 - 3.6 - Partly cloudy 6 - - - -
31/04:30pm 7.6 W 18 27 999.3 - 2.8 - Partly cloudy 8 - - - -
31/04:00pm 8.1 W 23 33 998.7 - 1.8 - Partly cloudy 5 - - - -
31/03:30pm 8.8 WSW 20 31 997.9 - 1.0 - Partly cloudy 5 - - - -
31/03:00pm 9.3 WSW 28 41 996.8 - 0.2 - Cloudy 4 - - - -
31/02:58pm 9.4 WSW 27 41 996.5 - 0.0 - Partly cloudy 4 - - - -
31/02:54pm 9.7 WSW 27 36 996.6 - 0.0 - Partly cloudy 8 - - - -
31/02:43pm 13.2 W 32 43 995.9 - 0.0 - Partly cloudy 10 - - - -
31/02:42pm 14.8 W 31 43 995.9 - 0.0 - Partly cloudy 10 - - - -
31/02:30pm 19.1 NW 30 42 993.7 - 0.0 - - 10 - - - -
31/02:00pm 18.7 NW 32 45 993.1 - 0.0 - - 10 - - - -
31/01:30pm 18.7 NNW 32 43 993.4 - 0.0 - - 10 - - - -
31/01:00pm 18.6 NNW 28 40 993.7 - 0.0 - - 10 - - - -
31/12:30pm 18.5 NNW 30 41 994.8 - 0.0 - - 10 - - - -
31/12:00pm 17.8 NNW 29 43 995.5 - 0.0 - - 10 - - - -
31/11:30am 17.5 NW 29 40 996.8 - 0.0 - - 10 - - - -
31/11:00am 17.4 NNW 26 42 997.6 - 0.0 - - 10 - - - -
31/10:30am 17.0 NNW 29 43 998.1 - 0.0 - - 10 - - - -
31/10:00am 17.1 NNW 25 40 998.6 - 0.0 - - 10 - - - -
31/09:30am 16.8 NNW 25 38 998.8 - 0.0 - - 10 - - - -
31/09:00am 16.2 N 22 33 999.4 - 0.0 - - 10 - - - -
31/08:37am 15.2 N 15 25 1000.3 - 0.0 - - 10 - - - -
31/08:30am 14.8 N 15 22 1000.5 - 0.0 - - 10 - - - -
31/08:00am 14.3 N 15 22 1000.7 - 0.0 - - 10 - - - -
31/07:30am 14.0 N 15 25 1000.9 - 0.0 - - 10 - - - -
31/07:01am 14.2 N 15 25 1001.2 - 0.0 - - 10 - - - -
31/07:00am 14.2 N 16 25 1001.3 - 0.0 - - 10 - - - -
31/06:30am 14.2 N 17 27 1001.8 - 0.0 - - 10 - - - -
31/06:00am 14.3 N 16 26 1002.4 - 0.0 - Mostly clear 10 - - - -
31/05:34am 14.6 N 15 25 1002.6 - 0.0 - Partly cloudy 10 - - - -
31/05:30am 14.6 N 14 23 1002.7 - 0.0 - Partly cloudy 10 - - - -
31/05:17am 14.7 N 15 25 1002.7 - 0.0 - Partly cloudy 10 - - - -
31/05:00am 13.9 NNW 12 16 1003.5 - 0.0 - Partly cloudy 10 - - - -
31/04:30am 13.2 N 12 19 1003.8 - 0.0 - Partly cloudy 10 - - - -
31/04:00am 14.3 N 12 21 1004.1 - 0.0 - - 10 - - - -
31/03:30am 14.2 N 11 21 1004.7 - 0.0 - Partly cloudy 10 - - - -
31/03:00am 14.7 N 13 21 1005.4 - 0.0 - Mostly cloudy 10 - - - -
31/02:30am 14.6 N 11 15 1006.1 - 0.0 - Cloudy 10 - - - -
31/02:00am 14.7 N 10 15 1006.5 - 0.0 - Partly cloudy 10 - - - -
31/01:30am 14.8 N 13 19 1006.9 - 0.0 - Partly cloudy 10 - - - -
31/01:00am 15.3 NNW 14 22 1007.6 - 0.0 - Partly cloudy 10 - - - -
31/12:33am 15.8 NNW 15 25 1007.6 - 0.0 - Partly cloudy 10 - - - -
31/12:30am 15.6 NNW 13 22 1007.7 - 0.0 - Partly cloudy 10 - - - -
31/12:01am 15.4 NNW 16 26 1007.9 - 0.0 - Partly cloudy 10 - - - -
31/12:00am 15.5 NNW 17 26 1008.0 - 0.0 - Partly cloudy 10 - - - -
 
Date/Time
EST
Temp

°C
Wind Pressure Rain
since 9am
mm
Weather Cloud Vis
km
Sea
Height
m
Swell
Dir
 
Speed
knots
Gust
knots
hPa Trend Height
m
Period
s
Dir
30/11:30pm 15.5 NNW 16 23 1008.4 - 0.0 - Cloudy 10 - - - -
30/11:00pm 15.1 N 15 21 1008.5 - 0.0 - Cloudy 10 - - - -
30/10:30pm 15.4 N 14 21 1008.8 - 0.0 - Cloudy 10 - - - -
30/10:00pm 15.2 N 12 17 1009.3 - 0.0 - Cloudy 10 - - - -
30/09:30pm 15.1 N 10 15 1009.7 - 0.0 - Cloudy 10 - - - -
30/09:00pm 15.5 NNW 14 20 1009.9 - 0.0 - Mostly cloudy 10 - - - -
30/08:30pm 14.8 NNW 13 19 1009.6 - 0.0 - Partly cloudy 10 - - - -
30/08:00pm 14.9 NNW 14 21 1009.6 - 0.0 - Partly cloudy 10 - - - -
30/07:30pm 14.8 NNW 13 19 1009.7 - 0.0 - - 10 - - - -
30/07:00pm 15.0 NNW 12 17 1009.8 - 0.0 - Partly cloudy 10 - - - -
30/06:30pm 15.6 N 11 16 1009.4 - 0.0 - Partly cloudy 10 - - - -
30/06:00pm 16.2 N 13 19 1009.4 - 0.0 - Mostly cloudy 10 - - - -
30/05:30pm 15.7 NNW 11 16 1009.6 - 0.0 - Partly cloudy 10 - - - -
30/05:00pm 16.4 NNW 12 16 1009.8 - 0.0 - Partly cloudy 10 - - - -
30/04:30pm 17.4 NNW 13 18 1009.6 - 0.0 - Partly cloudy 10 - - - -
30/04:00pm 17.5 NW 20 25 1009.5 - 0.0 - Partly cloudy 10 - - - -
30/03:30pm 17.6 NW 22 30 1009.8 - 0.0 - Partly cloudy 10 - - - -
30/03:00pm 18.3 NW 22 32 1009.5 - 0.0 - Mostly cloudy 10 - - - -
30/02:30pm 17.6 NW 23 33 1009.4 - 0.0 - Partly cloudy 10 - - - -
30/02:22pm 17.9 WNW 23 33 1009.3 - 0.0 - Partly cloudy 10 - - - -
30/02:00pm 18.8 NW 22 29 1009.2 - 0.0 - Partly cloudy 10 - - - -
30/01:44pm 18.9 NW 20 30 1009.4 - 0.0 - Partly cloudy 10 - - - -
30/01:30pm 17.9 NW 17 26 1009.7 - 0.0 - Partly cloudy 10 - - - -
30/01:28pm 17.9 NNW 16 26 1009.7 - 0.0 - Partly cloudy 10 - - - -
30/01:00pm 17.7 NW 17 22 1010.3 - 0.0 - Partly cloudy 10 - - - -
30/12:30pm 17.8 NW 17 22 1010.7 - 0.0 - Partly cloudy 10 - - - -
30/12:00pm 17.3 NNW 17 23 1011.2 - 0.0 - Cloudy 10 - - - -
30/11:30am 17.1 NNW 15 20 1011.8 - 0.0 - Cloudy 10 - - - -
30/11:00am 16.6 NW 16 23 1012.3 - 0.0 - Cloudy 10 - - - -
30/10:30am 15.8 NNW 11 16 1012.5 - 0.0 - Partly cloudy 10 - - - -
30/10:00am 15.3 NW 13 20 1013.0 - 0.0 - Partly cloudy 10 - - - -
30/09:30am 15.6 N 13 18 1012.4 - 0.0 - Partly cloudy 10 - - - -
30/09:00am 14.1 N 11 16 1012.3 - 0.0 - Partly cloudy 10 - - - -
30/08:30am 13.3 N 12 16 1012.3 - 0.0 - Partly cloudy 10 - - - -
30/08:00am 12.3 N 10 16 1011.9 - 0.0 - - 10 - - - -
30/07:30am 11.8 N 8 11 1012.0 - 0.0 - Partly cloudy 10 - - - -
30/07:00am 12.0 NNW 9 12 1012.0 - 0.0 - - 10 - - - -
30/06:30am 11.6 NNW 9 12 1012.0 - 0.0 - Partly cloudy 10 - - - -
30/06:00am 11.3 NW 8 10 1012.0 - 0.0 - Mostly clear 10 - - - -
30/05:30am 12.1 NNW 8 10 1011.9 - 0.0 - - 10 - - - -
30/05:00am 11.8 NW 7 10 1011.6 - 0.0 - Partly cloudy 10 - - - -
30/04:30am 13.0 WSW 11 17 1011.5 - 0.0 - Partly cloudy 10 - - - -
30/04:00am 13.9 WNW 10 13 1011.3 - 0.0 - Partly cloudy 10 - - - -
30/03:30am 14.0 NW 9 13 1011.4 - 0.0 - Partly cloudy 10 - - - -
30/03:00am 14.0 NW 9 12 1011.2 - 0.0 - Cloudy 10 - - - -
30/02:30am 13.7 NW 7 9 1011.3 - 0.0 - Partly cloudy 10 - - - -
30/02:00am 14.2 NW 9 13 1011.1 - 0.0 - Partly cloudy 10 - - - -
30/01:30am 14.0 NW 9 12 1011.1 - 0.0 - Partly cloudy 10 - - - -
30/01:00am 14.2 NW 8 10 1011.0 - 0.0 - Cloudy 10 - - - -
30/12:36am 13.9 WSW 5 7 1011.1 - 0.0 - Partly cloudy 10 - - - -
30/12:30am 14.1 W 7 13 1011.1 - 0.0 - Partly cloudy 10 - - - -
30/12:17am 14.6 NW 16 23 1011.1 - 0.0 - Partly cloudy 8 - - - -
30/12:00am 15.1 NW 12 16 1010.7 - 0.0 - Cloudy 10 - - - -

Other Formats:

Comma delimited format used in spreadsheet applications
http://www.bom.gov.au/fwo/IDV60701/IDV60701.94865.axf

JavaScript Object Notation format (JSON) in row-major order
http://www.bom.gov.au/fwo/IDV60701/IDV60701.94865.json